EDLP/PAD METAR and TAF weather

Enter ICAO airport designator
Station Type Date Time Source
EDLP METAR 2020/01/27 13:50 UTC NOAA

EDLP 271350Z 20014KT 9999 BKN036 BKN045 08/04 Q1005


Station Type Date Time Source
EDLP Decoded METAR 2020/01/27 13:50 UTC NOAA

Paderborn / Lippstadt, Germany (EDLP) 51-37N 008-37E
Jan 27, 2020 - 08:50 AM EST / 2020.01.27 1350 UTC
Wind: from the SSW (200 degrees) at 16 MPH (14 KT):0
Visibility: greater than 7 mile(s):0
Sky conditions: mostly cloudy
Temperature: 46 F (8 C)
Dew Point: 39 F (4 C)
Relative Humidity: 75%
Pressure (altimeter): 29.68 in. Hg (1005 hPa)
ob: EDLP 271350Z 20014KT 9999 BKN036 BKN045 08/04 Q1005
cycle: 14

Station Type Date Time Source
EDLP TAF 2020/01/27 12:27 UTC NOAA

TAF EDLP 271100Z 2712/2812 18013KT 9999 BKN035 PROB30
TEMPO 2717/2724 RA
TEMPO 2805/2812 SHRA BKN020TCU PROB30
TEMPO 2806/2812 27025G40KT TSGS BKN015CB
BECMG 2806/2809 24020G30KT

Example: see airport list